sensor_id;sensor_type;location;lat;lon;timestamp;temperature;humidity
25983;DHT22;13773;48.868;10.730;2023-10-09T00:01:04;13.20;99.90
25983;DHT22;13773;48.868;10.730;2023-10-09T00:03:40;13.20;99.90
25983;DHT22;13773;48.868;10.730;2023-10-09T00:06:06;13.20;99.90
25983;DHT22;13773;48.868;10.730;2023-10-09T00:08:33;13.20;99.90
25983;DHT22;13773;48.868;10.730;2023-10-09T00:11:01;13.30;99.90
25983;DHT22;13773;48.868;10.730;2023-10-09T00:13:53;13.40;99.90
25983;DHT22;13773;48.868;10.730;2023-10-09T00:16:24;13.50;99.90
25983;DHT22;13773;48.868;10.730;2023-10-09T00:19:04;13.40;99.90
25983;DHT22;13773;48.868;10.730;2023-10-09T00:21:48;13.30;99.90
25983;DHT22;13773;48.868;10.730;2023-10-09T00:24:15;13.20;99.90
25983;DHT22;13773;48.868;10.730;2023-10-09T00:26:52;13.20;99.90
25983;DHT22;13773;48.868;10.730;2023-10-09T00:29:21;13.10;99.90
25983;DHT22;13773;48.868;10.730;2023-10-09T00:34:17;12.70;99.90
25983;DHT22;13773;48.868;10.730;2023-10-09T00:36:46;12.60;99.90
25983;DHT22;13773;48.868;10.730;2023-10-09T00:39:20;12.50;99.90
25983;DHT22;13773;48.868;10.730;2023-10-09T00:42:04;12.40;99.90
25983;DHT22;13773;48.868;10.730;2023-10-09T00:44:32;12.40;99.90
25983;DHT22;13773;48.868;10.730;2023-10-09T00:47:15;12.40;99.90
25983;DHT22;13773;48.868;10.730;2023-10-09T00:52:30;12.30;99.90
25983;DHT22;13773;48.868;10.730;2023-10-09T00:55:10;12.30;99.90
25983;DHT22;13773;48.868;10.730;2023-10-09T00:57:44;12.30;99.90
25983;DHT22;13773;48.868;10.730;2023-10-09T01:00:22;12.40;99.90
25983;DHT22;13773;48.868;10.730;2023-10-09T01:03:01;12.40;99.90
25983;DHT22;13773;48.868;10.730;2023-10-09T01:05:39;12.30;99.90
25983;DHT22;13773;48.868;10.730;2023-10-09T01:08:20;12.30;99.90
25983;DHT22;13773;48.868;10.730;2023-10-09T01:13:39;12.20;99.90
25983;DHT22;13773;48.868;10.730;2023-10-09T01:16:19;12.30;99.90
25983;DHT22;13773;48.868;10.730;2023-10-09T01:18:53;12.30;99.90
25983;DHT22;13773;48.868;10.730;2023-10-09T01:21:22;12.30;99.90
25983;DHT22;13773;48.868;10.730;2023-10-09T01:23:53;12.40;99.90
25983;DHT22;13773;48.868;10.730;2023-10-09T01:26:40;12.50;99.90
25983;DHT22;13773;48.868;10.730;2023-10-09T01:29:20;12.60;99.90
25983;DHT22;13773;48.868;10.730;2023-10-09T01:31:56;12.60;99.90
25983;DHT22;13773;48.868;10.730;2023-10-09T01:34:27;12.60;99.90
25983;DHT22;13773;48.868;10.730;2023-10-09T01:37:11;12.60;99.90
25983;DHT22;13773;48.868;10.730;2023-10-09T01:39:47;12.70;99.90
25983;DHT22;13773;48.868;10.730;2023-10-09T01:42:14;12.70;99.90
25983;DHT22;13773;48.868;10.730;2023-10-09T01:44:50;12.70;99.90
25983;DHT22;13773;48.868;10.730;2023-10-09T01:47:16;12.60;99.90
25983;DHT22;13773;48.868;10.730;2023-10-09T01:49:44;12.60;99.90
25983;DHT22;13773;48.868;10.730;2023-10-09T01:52:14;12.60;99.90
25983;DHT22;13773;48.868;10.730;2023-10-09T01:54:50;12.50;99.90
25983;DHT22;13773;48.868;10.730;2023-10-09T01:57:18;12.50;99.90
25983;DHT22;13773;48.868;10.730;2023-10-09T01:59:51;12.60;99.90
25983;DHT22;13773;48.868;10.730;2023-10-09T02:02:19;12.60;99.90
25983;DHT22;13773;48.868;10.730;2023-10-09T02:05:04;12.70;99.90
25983;DHT22;13773;48.868;10.730;2023-10-09T02:07:51;12.90;99.90
25983;DHT22;13773;48.868;10.730;2023-10-09T02:10:21;13.10;99.90
25983;DHT22;13773;48.868;10.730;2023-10-09T02:12:51;13.10;99.90
25983;DHT22;13773;48.868;10.730;2023-10-09T02:15:27;13.10;99.90
25983;DHT22;13773;48.868;10.730;2023-10-09T02:18:12;13.10;99.90
25983;DHT22;13773;48.868;10.730;2023-10-09T02:20:51;13.00;99.90
25983;DHT22;13773;48.868;10.730;2023-10-09T02:23:27;13.10;99.90
25983;DHT22;13773;48.868;10.730;2023-10-09T02:26:04;13.00;99.90
25983;DHT22;13773;48.868;10.730;2023-10-09T02:28:32;13.00;99.90
25983;DHT22;13773;48.868;10.730;2023-10-09T02:31:01;13.10;99.90
25983;DHT22;13773;48.868;10.730;2023-10-09T02:33:35;13.10;99.90
25983;DHT22;13773;48.868;10.730;2023-10-09T02:36:10;13.20;99.90
25983;DHT22;13773;48.868;10.730;2023-10-09T02:38:37;13.30;99.90
25983;DHT22;13773;48.868;10.730;2023-10-09T02:41:03;13.40;99.90
25983;DHT22;13773;48.868;10.730;2023-10-09T02:43:30;13.40;99.90
25983;DHT22;13773;48.868;10.730;2023-10-09T02:46:03;13.50;99.90
25983;DHT22;13773;48.868;10.730;2023-10-09T02:48:55;13.60;99.90
25983;DHT22;13773;48.868;10.730;2023-10-09T02:51:23;13.60;99.90
25983;DHT22;13773;48.868;10.730;2023-10-09T02:54:02;13.70;99.90
25983;DHT22;13773;48.868;10.730;2023-10-09T02:56:52;13.80;99.90
25983;DHT22;13773;48.868;10.730;2023-10-09T02:59:22;14.00;99.90
25983;DHT22;13773;48.868;10.730;2023-10-09T03:01:49;14.00;99.90
25983;DHT22;13773;48.868;10.730;2023-10-09T03:04:15;14.00;99.90
25983;DHT22;13773;48.868;10.730;2023-10-09T03:06:41;14.00;99.90
25983;DHT22;13773;48.868;10.730;2023-10-09T03:09:20;13.90;99.90
25983;DHT22;13773;48.868;10.730;2023-10-09T03:11:55;13.90;99.90
25983;DHT22;13773;48.868;10.730;2023-10-09T03:14:25;13.90;99.90
25983;DHT22;13773;48.868;10.730;2023-10-09T03:16:55;13.80;99.90
25983;DHT22;13773;48.868;10.730;2023-10-09T03:19:25;13.80;99.90
25983;DHT22;13773;48.868;10.730;2023-10-09T03:21:52;13.70;99.90
25983;DHT22;13773;48.868;10.730;2023-10-09T03:24:18;13.60;99.90
25983;DHT22;13773;48.868;10.730;2023-10-09T03:26:45;13.60;99.90
25983;DHT22;13773;48.868;10.730;2023-10-09T03:29:11;13.80;99.90
25983;DHT22;13773;48.868;10.730;2023-10-09T03:31:37;13.90;99.90
25983;DHT22;13773;48.868;10.730;2023-10-09T03:34:04;13.90;99.90
25983;DHT22;13773;48.868;10.730;2023-10-09T03:36:29;14.10;99.90
25983;DHT22;13773;48.868;10.730;2023-10-09T03:39:04;14.10;99.90
25983;DHT22;13773;48.868;10.730;2023-10-09T03:41:44;14.10;99.90
25983;DHT22;13773;48.868;10.730;2023-10-09T03:44:15;14.10;99.90
25983;DHT22;13773;48.868;10.730;2023-10-09T03:46:44;14.10;99.90
25983;DHT22;13773;48.868;10.730;2023-10-09T03:49:10;14.00;99.90
25983;DHT22;13773;48.868;10.730;2023-10-09T03:51:37;14.00;99.90
25983;DHT22;13773;48.868;10.730;2023-10-09T03:54:03;13.90;99.90
25983;DHT22;13773;48.868;10.730;2023-10-09T03:56:33;14.00;99.90
25983;DHT22;13773;48.868;10.730;2023-10-09T03:59:00;13.90;99.90
25983;DHT22;13773;48.868;10.730;2023-10-09T04:01:27;13.80;99.90
25983;DHT22;13773;48.868;10.730;2023-10-09T04:03:57;13.80;99.90
25983;DHT22;13773;48.868;10.730;2023-10-09T04:06:27;13.60;99.90
25983;DHT22;13773;48.868;10.730;2023-10-09T04:09:07;13.60;99.90
25983;DHT22;13773;48.868;10.730;2023-10-09T04:11:57;13.40;99.90
25983;DHT22;13773;48.868;10.730;2023-10-09T04:14:41;13.60;99.90
25983;DHT22;13773;48.868;10.730;2023-10-09T04:17:15;13.60;99.90
25983;DHT22;13773;48.868;10.730;2023-10-09T04:20:01;13.60;99.90
25983;DHT22;13773;48.868;10.730;2023-10-09T04:22:59;13.60;99.90
25983;DHT22;13773;48.868;10.730;2023-10-09T04:25:30;13.50;99.90
25983;DHT22;13773;48.868;10.730;2023-10-09T04:28:07;13.40;99.90
25983;DHT22;13773;48.868;10.730;2023-10-09T04:30:48;13.40;99.90
25983;DHT22;13773;48.868;10.730;2023-10-09T04:33:19;13.50;99.90
25983;DHT22;13773;48.868;10.730;2023-10-09T04:36:09;13.50;99.90
25983;DHT22;13773;48.868;10.730;2023-10-09T04:38:51;13.50;99.90
25983;DHT22;13773;48.868;10.730;2023-10-09T04:41:29;13.50;99.90
25983;DHT22;13773;48.868;10.730;2023-10-09T04:43:59;13.50;99.90
25983;DHT22;13773;48.868;10.730;2023-10-09T04:46:44;13.40;99.90
25983;DHT22;13773;48.868;10.730;2023-10-09T04:49:10;13.30;99.90
25983;DHT22;13773;48.868;10.730;2023-10-09T04:52:02;13.30;99.90
25983;DHT22;13773;48.868;10.730;2023-10-09T04:54:31;13.40;99.90
25983;DHT22;13773;48.868;10.730;2023-10-09T04:57:17;13.40;99.90
25983;DHT22;13773;48.868;10.730;2023-10-09T04:59:43;13.40;99.90
25983;DHT22;13773;48.868;10.730;2023-10-09T05:02:13;13.50;99.90
25983;DHT22;13773;48.868;10.730;2023-10-09T05:04:46;13.70;99.90
25983;DHT22;13773;48.868;10.730;2023-10-09T05:07:16;13.70;99.90
25983;DHT22;13773;48.868;10.730;2023-10-09T05:10:11;13.90;99.90
25983;DHT22;13773;48.868;10.730;2023-10-09T05:12:44;13.80;99.90
25983;DHT22;13773;48.868;10.730;2023-10-09T05:15:14;13.80;99.90
25983;DHT22;13773;48.868;10.730;2023-10-09T05:17:40;14.00;99.90
25983;DHT22;13773;48.868;10.730;2023-10-09T05:20:11;14.00;99.90
25983;DHT22;13773;48.868;10.730;2023-10-09T05:22:52;14.10;99.90
25983;DHT22;13773;48.868;10.730;2023-10-09T05:25:27;14.00;99.90
25983;DHT22;13773;48.868;10.730;2023-10-09T05:28:11;14.00;99.90
25983;DHT22;13773;48.868;10.730;2023-10-09T05:31:06;14.10;99.90
25983;DHT22;13773;48.868;10.730;2023-10-09T05:33:36;14.10;99.90
25983;DHT22;13773;48.868;10.730;2023-10-09T05:36:05;14.10;99.90
25983;DHT22;13773;48.868;10.730;2023-10-09T05:38:42;14.10;99.90
25983;DHT22;13773;48.868;10.730;2023-10-09T05:41:27;14.00;99.90
25983;DHT22;13773;48.868;10.730;2023-10-09T05:44:13;13.90;99.90
25983;DHT22;13773;48.868;10.730;2023-10-09T05:46:57;14.10;99.90
25983;DHT22;13773;48.868;10.730;2023-10-09T05:49:41;14.30;99.90
25983;DHT22;13773;48.868;10.730;2023-10-09T05:52:22;14.40;99.90
25983;DHT22;13773;48.868;10.730;2023-10-09T05:55:08;14.40;99.90
25983;DHT22;13773;48.868;10.730;2023-10-09T05:57:56;14.40;99.90
25983;DHT22;13773;48.868;10.730;2023-10-09T06:00:25;14.50;99.90
25983;DHT22;13773;48.868;10.730;2023-10-09T06:03:11;14.40;99.90
25983;DHT22;13773;48.868;10.730;2023-10-09T06:05:52;14.50;99.90
25983;DHT22;13773;48.868;10.730;2023-10-09T06:08:26;14.50;99.90
25983;DHT22;13773;48.868;10.730;2023-10-09T06:11:18;14.40;99.90
25983;DHT22;13773;48.868;10.730;2023-10-09T06:14:00;14.50;99.90
25983;DHT22;13773;48.868;10.730;2023-10-09T06:16:36;14.50;99.90
25983;DHT22;13773;48.868;10.730;2023-10-09T06:19:09;14.60;99.90
25983;DHT22;13773;48.868;10.730;2023-10-09T06:21:54;14.70;99.90
25983;DHT22;13773;48.868;10.730;2023-10-09T06:24:40;14.80;99.90
25983;DHT22;13773;48.868;10.730;2023-10-09T06:27:21;14.90;99.90
25983;DHT22;13773;48.868;10.730;2023-10-09T06:29:51;15.00;99.90
25983;DHT22;13773;48.868;10.730;2023-10-09T06:32:37;15.00;99.90
25983;DHT22;13773;48.868;10.730;2023-10-09T06:35:03;15.20;99.90
25983;DHT22;13773;48.868;10.730;2023-10-09T06:37:51;15.20;99.90
25983;DHT22;13773;48.868;10.730;2023-10-09T06:40:35;15.20;99.90
25983;DHT22;13773;48.868;10.730;2023-10-09T06:43:20;15.30;99.90
25983;DHT22;13773;48.868;10.730;2023-10-09T06:45:49;15.30;99.90
25983;DHT22;13773;48.868;10.730;2023-10-09T06:48:26;15.40;99.90
25983;DHT22;13773;48.868;10.730;2023-10-09T06:51:09;15.40;99.90
25983;DHT22;13773;48.868;10.730;2023-10-09T06:53:53;15.40;99.90
25983;DHT22;13773;48.868;10.730;2023-10-09T06:56:22;15.50;99.90
25983;DHT22;13773;48.868;10.730;2023-10-09T06:59:11;15.60;99.90
25983;DHT22;13773;48.868;10.730;2023-10-09T07:01:50;15.70;99.90
25983;DHT22;13773;48.868;10.730;2023-10-09T07:04:36;15.80;99.90
25983;DHT22;13773;48.868;10.730;2023-10-09T07:07:02;15.80;99.90
25983;DHT22;13773;48.868;10.730;2023-10-09T07:09:35;15.90;99.90
25983;DHT22;13773;48.868;10.730;2023-10-09T07:12:19;16.00;99.90
25983;DHT22;13773;48.868;10.730;2023-10-09T07:14:52;14.70;99.90
25983;DHT22;13773;48.868;10.730;2023-10-09T07:17:27;16.20;99.90
25983;DHT22;13773;48.868;10.730;2023-10-09T07:19:59;16.10;99.90
25983;DHT22;13773;48.868;10.730;2023-10-09T07:22:43;16.10;99.90
25983;DHT22;13773;48.868;10.730;2023-10-09T07:25:19;16.00;99.90
25983;DHT22;13773;48.868;10.730;2023-10-09T07:28:07;16.00;99.90
25983;DHT22;13773;48.868;10.730;2023-10-09T07:30:45;16.00;99.90
25983;DHT22;13773;48.868;10.730;2023-10-09T07:33:12;16.00;99.90
25983;DHT22;13773;48.868;10.730;2023-10-09T07:38:18;16.00;99.90
25983;DHT22;13773;48.868;10.730;2023-10-09T07:41:01;16.10;99.90
25983;DHT22;13773;48.868;10.730;2023-10-09T07:46:04;16.10;99.90
25983;DHT22;13773;48.868;10.730;2023-10-09T07:48:31;16.00;99.90
25983;DHT22;13773;48.868;10.730;2023-10-09T07:51:21;16.10;99.90
25983;DHT22;13773;48.868;10.730;2023-10-09T07:53:57;16.20;99.90
25983;DHT22;13773;48.868;10.730;2023-10-09T07:56:26;16.20;99.90
25983;DHT22;13773;48.868;10.730;2023-10-09T07:58:58;16.20;99.90
25983;DHT22;13773;48.868;10.730;2023-10-09T08:01:26;16.30;99.90
25983;DHT22;13773;48.868;10.730;2023-10-09T08:03:52;16.20;99.90
25983;DHT22;13773;48.868;10.730;2023-10-09T08:06:27;16.20;99.90
25983;DHT22;13773;48.868;10.730;2023-10-09T08:09:09;16.30;99.90
25983;DHT22;13773;48.868;10.730;2023-10-09T08:11:38;16.40;99.90
25983;DHT22;13773;48.868;10.730;2023-10-09T08:14:09;16.30;99.90
25983;DHT22;13773;48.868;10.730;2023-10-09T08:16:48;16.50;99.90
25983;DHT22;13773;48.868;10.730;2023-10-09T08:19:14;16.50;99.90
25983;DHT22;13773;48.868;10.730;2023-10-09T08:22:01;16.50;99.90
25983;DHT22;13773;48.868;10.730;2023-10-09T08:24:42;16.60;99.90
25983;DHT22;13773;48.868;10.730;2023-10-09T08:27:24;16.60;99.90
25983;DHT22;13773;48.868;10.730;2023-10-09T08:29:59;16.60;99.90
25983;DHT22;13773;48.868;10.730;2023-10-09T08:32:46;16.60;99.90
25983;DHT22;13773;48.868;10.730;2023-10-09T08:35:51;16.50;99.90
25983;DHT22;13773;48.868;10.730;2023-10-09T08:38:20;16.70;99.90
25983;DHT22;13773;48.868;10.730;2023-10-09T08:40:52;16.80;99.90
25983;DHT22;13773;48.868;10.730;2023-10-09T08:43:23;16.60;99.90
25983;DHT22;13773;48.868;10.730;2023-10-09T08:45:53;16.80;99.90
25983;DHT22;13773;48.868;10.730;2023-10-09T08:48:22;17.00;99.90
25983;DHT22;13773;48.868;10.730;2023-10-09T08:50:52;17.20;99.90
25983;DHT22;13773;48.868;10.730;2023-10-09T08:53:24;17.30;99.90
25983;DHT22;13773;48.868;10.730;2023-10-09T08:55:53;17.30;99.90
25983;DHT22;13773;48.868;10.730;2023-10-09T08:58:19;17.50;99.90
25983;DHT22;13773;48.868;10.730;2023-10-09T09:00:46;17.50;99.90
25983;DHT22;13773;48.868;10.730;2023-10-09T09:03:19;17.70;99.90
25983;DHT22;13773;48.868;10.730;2023-10-09T09:05:59;17.60;99.90
25983;DHT22;13773;48.868;10.730;2023-10-09T09:08:29;17.70;99.90
25983;DHT22;13773;48.868;10.730;2023-10-09T09:11:07;17.80;99.90
25983;DHT22;13773;48.868;10.730;2023-10-09T09:16:30;17.90;99.90
25983;DHT22;13773;48.868;10.730;2023-10-09T09:19:03;17.90;99.90
25983;DHT22;13773;48.868;10.730;2023-10-09T09:21:39;18.00;99.90
25983;DHT22;13773;48.868;10.730;2023-10-09T09:24:11;18.10;99.90
25983;DHT22;13773;48.868;10.730;2023-10-09T09:26:52;18.20;99.90
25983;DHT22;13773;48.868;10.730;2023-10-09T09:29:38;18.30;99.90
25983;DHT22;13773;48.868;10.730;2023-10-09T09:32:06;18.30;99.90
25983;DHT22;13773;48.868;10.730;2023-10-09T09:34:50;18.50;99.90
25983;DHT22;13773;48.868;10.730;2023-10-09T09:37:21;18.70;99.90
25983;DHT22;13773;48.868;10.730;2023-10-09T09:39:51;18.80;99.90
25983;DHT22;13773;48.868;10.730;2023-10-09T09:42:18;18.70;99.90
25983;DHT22;13773;48.868;10.730;2023-10-09T09:44:51;18.80;99.90
25983;DHT22;13773;48.868;10.730;2023-10-09T09:47:18;18.90;99.90
25983;DHT22;13773;48.868;10.730;2023-10-09T09:49:53;18.80;99.90
25983;DHT22;13773;48.868;10.730;2023-10-09T09:52:29;18.80;99.90
25983;DHT22;13773;48.868;10.730;2023-10-09T09:54:55;18.90;99.90
25983;DHT22;13773;48.868;10.730;2023-10-09T09:57:24;19.00;99.90
25983;DHT22;13773;48.868;10.730;2023-10-09T09:59:54;19.10;99.90
25983;DHT22;13773;48.868;10.730;2023-10-09T10:02:27;19.20;99.90
25983;DHT22;13773;48.868;10.730;2023-10-09T10:04:57;19.20;99.90
25983;DHT22;13773;48.868;10.730;2023-10-09T10:07:25;19.30;99.90
25983;DHT22;13773;48.868;10.730;2023-10-09T10:09:53;19.50;99.90
25983;DHT22;13773;48.868;10.730;2023-10-09T10:12:51;19.50;99.90
25983;DHT22;13773;48.868;10.730;2023-10-09T10:18:30;19.70;99.90
25983;DHT22;13773;48.868;10.730;2023-10-09T10:23:43;19.40;99.90
25983;DHT22;13773;48.868;10.730;2023-10-09T10:26:21;19.40;99.90
25983;DHT22;13773;48.868;10.730;2023-10-09T10:29:15;19.60;99.90
25983;DHT22;13773;48.868;10.730;2023-10-09T10:31:57;19.80;99.90
25983;DHT22;13773;48.868;10.730;2023-10-09T10:34:26;19.80;99.90
25983;DHT22;13773;48.868;10.730;2023-10-09T10:36:53;19.60;99.90
25983;DHT22;13773;48.868;10.730;2023-10-09T10:39:26;19.80;99.90
25983;DHT22;13773;48.868;10.730;2023-10-09T10:42:10;19.80;99.90
25983;DHT22;13773;48.868;10.730;2023-10-09T10:44:56;20.00;99.90
25983;DHT22;13773;48.868;10.730;2023-10-09T10:47:27;20.00;99.90
25983;DHT22;13773;48.868;10.730;2023-10-09T10:50:00;20.10;99.90
25983;DHT22;13773;48.868;10.730;2023-10-09T10:52:36;19.70;99.90
25983;DHT22;13773;48.868;10.730;2023-10-09T10:55:11;19.90;99.90
25983;DHT22;13773;48.868;10.730;2023-10-09T10:57:55;19.70;99.90
25983;DHT22;13773;48.868;10.730;2023-10-09T11:00:26;19.80;99.90
25983;DHT22;13773;48.868;10.730;2023-10-09T11:03:17;19.80;99.90
25983;DHT22;13773;48.868;10.730;2023-10-09T11:05:46;19.80;99.90
25983;DHT22;13773;48.868;10.730;2023-10-09T11:08:17;19.80;99.90
25983;DHT22;13773;48.868;10.730;2023-10-09T11:10:49;19.70;99.90
25983;DHT22;13773;48.868;10.730;2023-10-09T11:13:22;19.80;99.90
25983;DHT22;13773;48.868;10.730;2023-10-09T11:16:18;19.70;99.90
25983;DHT22;13773;48.868;10.730;2023-10-09T11:19:09;19.70;99.90
25983;DHT22;13773;48.868;10.730;2023-10-09T11:21:54;19.70;99.90
25983;DHT22;13773;48.868;10.730;2023-10-09T11:24:27;19.80;99.90
25983;DHT22;13773;48.868;10.730;2023-10-09T11:26:58;19.80;99.90
25983;DHT22;13773;48.868;10.730;2023-10-09T11:29:34;19.90;99.90
25983;DHT22;13773;48.868;10.730;2023-10-09T11:32:19;19.80;99.90
25983;DHT22;13773;48.868;10.730;2023-10-09T11:34:48;19.80;99.90
25983;DHT22;13773;48.868;10.730;2023-10-09T11:37:19;19.70;99.90
25983;DHT22;13773;48.868;10.730;2023-10-09T11:40:06;21.00;99.90
25983;DHT22;13773;48.868;10.730;2023-10-09T11:42:49;19.30;99.90
25983;DHT22;13773;48.868;10.730;2023-10-09T11:45:27;19.20;99.90
25983;DHT22;13773;48.868;10.730;2023-10-09T11:47:58;19.10;99.90
25983;DHT22;13773;48.868;10.730;2023-10-09T11:50:47;19.00;99.90
25983;DHT22;13773;48.868;10.730;2023-10-09T11:53:19;19.00;99.90
25983;DHT22;13773;48.868;10.730;2023-10-09T11:55:49;19.20;99.90
25983;DHT22;13773;48.868;10.730;2023-10-09T11:58:16;19.30;99.90
25983;DHT22;13773;48.868;10.730;2023-10-09T12:00:55;19.30;99.90
25983;DHT22;13773;48.868;10.730;2023-10-09T12:03:28;19.40;99.90
25983;DHT22;13773;48.868;10.730;2023-10-09T12:06:02;19.40;99.90
25983;DHT22;13773;48.868;10.730;2023-10-09T12:08:34;19.50;99.90
25983;DHT22;13773;48.868;10.730;2023-10-09T12:11:01;19.50;99.90
25983;DHT22;13773;48.868;10.730;2023-10-09T12:13:33;19.60;99.90
25983;DHT22;13773;48.868;10.730;2023-10-09T12:15:59;19.50;99.90
25983;DHT22;13773;48.868;10.730;2023-10-09T12:18:25;19.50;99.90
25983;DHT22;13773;48.868;10.730;2023-10-09T12:20:51;19.50;99.90
25983;DHT22;13773;48.868;10.730;2023-10-09T12:23:21;19.50;99.90
25983;DHT22;13773;48.868;10.730;2023-10-09T12:25:51;19.50;99.90
25983;DHT22;13773;48.868;10.730;2023-10-09T12:28:20;19.70;99.90
25983;DHT22;13773;48.868;10.730;2023-10-09T12:30:47;19.70;99.90
25983;DHT22;13773;48.868;10.730;2023-10-09T12:33:17;19.80;99.90
25983;DHT22;13773;48.868;10.730;2023-10-09T12:35:43;19.90;99.90
25983;DHT22;13773;48.868;10.730;2023-10-09T12:38:13;20.00;99.90
25983;DHT22;13773;48.868;10.730;2023-10-09T12:40:44;20.00;99.90
25983;DHT22;13773;48.868;10.730;2023-10-09T12:43:19;20.10;99.90
25983;DHT22;13773;48.868;10.730;2023-10-09T12:45:48;20.20;99.90
25983;DHT22;13773;48.868;10.730;2023-10-09T12:48:14;20.30;99.90
25983;DHT22;13773;48.868;10.730;2023-10-09T12:50:40;20.30;99.90
25983;DHT22;13773;48.868;10.730;2023-10-09T12:53:10;20.30;99.90
25983;DHT22;13773;48.868;10.730;2023-10-09T12:55:37;20.40;99.90
25983;DHT22;13773;48.868;10.730;2023-10-09T12:58:06;20.50;99.90
25983;DHT22;13773;48.868;10.730;2023-10-09T13:00:36;20.70;99.90
25983;DHT22;13773;48.868;10.730;2023-10-09T13:03:10;20.60;99.90
25983;DHT22;13773;48.868;10.730;2023-10-09T13:05:47;20.80;99.90
25983;DHT22;13773;48.868;10.730;2023-10-09T13:08:24;20.90;99.90
25983;DHT22;13773;48.868;10.730;2023-10-09T13:10:57;21.00;99.90
25983;DHT22;13773;48.868;10.730;2023-10-09T13:13:30;21.00;99.90
25983;DHT22;13773;48.868;10.730;2023-10-09T13:16:21;21.10;99.90
25983;DHT22;13773;48.868;10.730;2023-10-09T13:18:56;21.20;99.90
25983;DHT22;13773;48.868;10.730;2023-10-09T13:21:24;21.20;99.90
25983;DHT22;13773;48.868;10.730;2023-10-09T13:23:51;21.10;99.90
25983;DHT22;13773;48.868;10.730;2023-10-09T13:26:21;21.10;99.90
25983;DHT22;13773;48.868;10.730;2023-10-09T13:28:54;21.10;99.90
25983;DHT22;13773;48.868;10.730;2023-10-09T13:31:21;21.10;99.90
25983;DHT22;13773;48.868;10.730;2023-10-09T13:33:51;21.00;99.90
25983;DHT22;13773;48.868;10.730;2023-10-09T13:36:22;21.00;99.90
25983;DHT22;13773;48.868;10.730;2023-10-09T13:39:04;20.90;99.90
25983;DHT22;13773;48.868;10.730;2023-10-09T13:41:57;20.90;99.90
25983;DHT22;13773;48.868;10.730;2023-10-09T13:44:27;20.70;99.90
25983;DHT22;13773;48.868;10.730;2023-10-09T13:46:57;20.50;99.90
25983;DHT22;13773;48.868;10.730;2023-10-09T13:49:24;20.50;99.90
25983;DHT22;13773;48.868;10.730;2023-10-09T13:51:56;20.70;99.90
25983;DHT22;13773;48.868;10.730;2023-10-09T13:54:23;20.60;99.90
25983;DHT22;13773;48.868;10.730;2023-10-09T13:56:58;20.50;99.90
25983;DHT22;13773;48.868;10.730;2023-10-09T13:59:24;20.50;99.90
25983;DHT22;13773;48.868;10.730;2023-10-09T14:01:53;20.50;99.90
25983;DHT22;13773;48.868;10.730;2023-10-09T14:04:22;20.50;99.90
25983;DHT22;13773;48.868;10.730;2023-10-09T14:06:51;20.30;99.90
25983;DHT22;13773;48.868;10.730;2023-10-09T14:09:26;20.30;99.90
25983;DHT22;13773;48.868;10.730;2023-10-09T14:12:05;20.20;99.90
25983;DHT22;13773;48.868;10.730;2023-10-09T14:14:36;20.20;99.90
25983;DHT22;13773;48.868;10.730;2023-10-09T14:17:07;20.20;99.90
25983;DHT22;13773;48.868;10.730;2023-10-09T14:19:57;20.30;99.90
25983;DHT22;13773;48.868;10.730;2023-10-09T14:22:41;20.10;99.90
25983;DHT22;13773;48.868;10.730;2023-10-09T14:25:07;20.20;99.90
25983;DHT22;13773;48.868;10.730;2023-10-09T14:27:40;20.80;99.90
25983;DHT22;13773;48.868;10.730;2023-10-09T14:30:06;20.20;99.90
25983;DHT22;13773;48.868;10.730;2023-10-09T14:32:38;20.20;99.90
25983;DHT22;13773;48.868;10.730;2023-10-09T14:35:13;20.20;99.90
25983;DHT22;13773;48.868;10.730;2023-10-09T14:37:39;20.10;99.90
25983;DHT22;13773;48.868;10.730;2023-10-09T14:40:06;20.20;99.90
25983;DHT22;13773;48.868;10.730;2023-10-09T14:42:41;20.30;99.90
25983;DHT22;13773;48.868;10.730;2023-10-09T14:45:10;20.30;99.90
25983;DHT22;13773;48.868;10.730;2023-10-09T14:47:44;20.30;99.90
25983;DHT22;13773;48.868;10.730;2023-10-09T14:50:12;20.40;99.90
25983;DHT22;13773;48.868;10.730;2023-10-09T14:52:39;20.40;99.90
25983;DHT22;13773;48.868;10.730;2023-10-09T14:55:06;20.30;99.90
25983;DHT22;13773;48.868;10.730;2023-10-09T14:57:32;20.30;99.90
25983;DHT22;13773;48.868;10.730;2023-10-09T15:00:03;20.30;99.90
25983;DHT22;13773;48.868;10.730;2023-10-09T15:02:39;20.30;99.90
25983;DHT22;13773;48.868;10.730;2023-10-09T15:05:05;20.30;99.90
25983;DHT22;13773;48.868;10.730;2023-10-09T15:07:33;20.30;99.90
25983;DHT22;13773;48.868;10.730;2023-10-09T15:09:59;20.20;99.90
25983;DHT22;13773;48.868;10.730;2023-10-09T15:12:29;20.10;99.90
25983;DHT22;13773;48.868;10.730;2023-10-09T15:14:55;20.00;99.90
25983;DHT22;13773;48.868;10.730;2023-10-09T15:17:22;20.00;99.90
25983;DHT22;13773;48.868;10.730;2023-10-09T15:19:47;19.90;99.90
25983;DHT22;13773;48.868;10.730;2023-10-09T15:22:13;19.90;99.90
25983;DHT22;13773;48.868;10.730;2023-10-09T15:24:39;19.90;99.90
25983;DHT22;13773;48.868;10.730;2023-10-09T15:27:06;19.90;99.90
25983;DHT22;13773;48.868;10.730;2023-10-09T15:29:32;19.90;99.90
25983;DHT22;13773;48.868;10.730;2023-10-09T15:32:00;19.80;99.90
25983;DHT22;13773;48.868;10.730;2023-10-09T15:34:33;19.80;99.90
25983;DHT22;13773;48.868;10.730;2023-10-09T15:37:02;19.70;99.90
25983;DHT22;13773;48.868;10.730;2023-10-09T15:39:29;19.70;99.90
25983;DHT22;13773;48.868;10.730;2023-10-09T15:41:57;19.60;99.90
25983;DHT22;13773;48.868;10.730;2023-10-09T15:44:23;19.50;99.90
25983;DHT22;13773;48.868;10.730;2023-10-09T15:46:51;19.40;99.90
25983;DHT22;13773;48.868;10.730;2023-10-09T15:49:19;19.40;99.90
25983;DHT22;13773;48.868;10.730;2023-10-09T15:51:44;19.40;99.90
25983;DHT22;13773;48.868;10.730;2023-10-09T15:54:12;19.40;99.90
25983;DHT22;13773;48.868;10.730;2023-10-09T15:56:41;19.30;99.90
25983;DHT22;13773;48.868;10.730;2023-10-09T15:59:07;19.30;99.90
25983;DHT22;13773;48.868;10.730;2023-10-09T16:01:33;19.30;99.90
25983;DHT22;13773;48.868;10.730;2023-10-09T16:04:01;19.20;99.90
25983;DHT22;13773;48.868;10.730;2023-10-09T16:06:26;19.10;99.90
25983;DHT22;13773;48.868;10.730;2023-10-09T16:08:56;19.10;99.90
25983;DHT22;13773;48.868;10.730;2023-10-09T16:11:28;19.00;99.90
25983;DHT22;13773;48.868;10.730;2023-10-09T16:13:59;18.90;99.90
25983;DHT22;13773;48.868;10.730;2023-10-09T16:16:26;18.90;99.90
25983;DHT22;13773;48.868;10.730;2023-10-09T16:18:52;18.80;99.90